Ana Sayfa
METAR-TAF:

METAR-TAF

Havaalanları :

Gazipaşa Havalimanı

Gazipaşa, Türkiye

Enlem: 36-17-56N, Boylam: 32-18-00E, yükseklik: 15 m

Güncel hava durumu gözlemi

Rapor saat 23:50 UTC de 35 dakika önce yapıldı.
Rüzgar doğudan 11 kt, doğu/kuzeydoğu ve doğu/güneydoğu arasında değişken
Sıcaklık 14°C
Nem 47%
Basınç 1009 hPa
Görüş mesafesi 10 km veya daha fazla
3000 ft yükseklikte az bulutlu

METAR: LTFG 232350Z 09011KT 060V120 9999 FEW030 14/03 Q1009

Saat: 03:25 (00:25 UTC)

Tahmin

Rapor saat 22:40 UTC de 1 saat ve 45 dakika önce yapıldı.
Ayın 24'si saat 00 UTC'den ayın 24'si saat 09 UTC'ye kadar geçerli Tahmin
Rüzgar doğu/güneydoğudan 7 kt
Görüş mesafesi 10 km veya daha fazla
3000 ft yükseklikte parçalı bulutlu
Dönüşüyor
ayın 24'si saat 00 UTC'den ayın 24'si saat 04 UTC'ye kadar
Rüzgar doğu/güneydoğudan 17 kt ve 27 kt'a kadar ani rüzgarlar

TAF: LTFG 232240Z 2400/2409 12007KT 9999 SCT030 BECMG 2400/2404 12017G27KT

4.000'den fazla havaalanı için hava durumu gözlemleri ve tahminleri (METAR ve TAF raporları).

Kullanılabilir istasyonlar harita üzerinde sarı ve kırmızı noktalarla gösterilir.

İstasyonun adını görmek için fareyi noktanın üzerinde gezdirin.

Sonrasında hava gözlem ve tahminlerini görmek için tıklayın.

Haritayı değiştirmek için: yaklaştırmak için siyah artı işaretli yeşil düğmeye ve uzaklaştırmak için de eksi işaretli düğmeye hızla tıklayın; bitişik haritalar için yeşil okları kullanın.


METAR-TAF: